Time;durP1;ratioP1;P1;durP2;ratioP2;P2;SDS_P1;SDS_P2;PMS_P1;PMS_P2;Temp;Humidity;BMP_temperature;BMP_pressure;BME280_temperature;BME280_humidity;BME280_pressure;Samples;Min_cycle;Max_cycle;Signal;HPM_P1;HPM_P2
2022/02/07 00:00:05;;;;;;;0.57;0.30;;;5.60;99.90;;;;;;5117945;28;20456;-72
2022/02/07 00:03:00;;;;;;;0.38;0.38;;;5.50;99.90;;;;;;5115591;28;20038;-72
2022/02/07 00:05:23;;;;;;;1.02;0.50;;;5.50;99.90;;;;;;5117308;28;20024;-72
2022/02/07 00:07:49;;;;;;;0.73;0.32;;;5.50;99.90;;;;;;5117566;28;20020;-71
2022/02/07 00:10:15;;;;;;;0.30;0.20;;;5.50;99.90;;;;;;5117945;28;20092;-72
2022/02/07 00:12:41;;;;;;;2.20;0.35;;;5.50;99.90;;;;;;5118173;28;20281;-72
2022/02/07 00:15:08;;;;;;;0.10;0.10;;;5.50;99.90;;;;;;5117258;28;20024;-71
2022/02/07 00:17:35;;;;;;;1.75;0.30;;;5.50;99.90;;;;;;5116539;28;20027;-72
2022/02/07 00:20:06;;;;;;;0.75;0.40;;;5.50;99.90;;;;;;5120101;28;20044;-72
2022/02/07 00:22:31;;;;;;;0.88;0.60;;;5.50;99.90;;;;;;5118363;28;20484;-71
2022/02/07 00:24:57;;;;;;;1.07;0.30;;;5.40;99.90;;;;;;5119695;28;20077;-73
2022/02/07 00:27:23;;;;;;;0.83;0.33;;;5.40;99.90;;;;;;5121812;28;20062;-73
2022/02/07 00:29:48;;;;;;;0.67;0.40;;;5.40;99.90;;;;;;5122126;28;20348;-73
2022/02/07 00:32:14;;;;;;;0.20;0.20;;;5.40;99.90;;;;;;5121736;28;20500;-73
2022/02/07 00:34:39;;;;;;;0.97;0.30;;;5.40;99.90;;;;;;5121389;28;20030;-70
2022/02/07 00:37:05;;;;;;;0.88;0.32;;;5.40;99.90;;;;;;5117665;28;20024;-69
2022/02/07 00:39:39;;;;;;;1.55;0.35;;;5.40;99.90;;;;;;5118973;28;20024;-69
2022/02/07 00:42:08;;;;;;;1.40;0.50;;;5.40;99.90;;;;;;5118528;28;20178;-69
2022/02/07 00:44:34;;;;;;;0.63;0.40;;;5.40;99.90;;;;;;5118966;28;20416;-69
2022/02/07 00:47:06;;;;;;;0.85;0.38;;;5.30;99.90;;;;;;5120383;28;20012;-69
2022/02/07 00:49:32;;;;;;;1.13;0.45;;;5.40;99.90;;;;;;5119944;28;20054;-68
2022/02/07 00:51:59;;;;;;;1.40;0.55;;;5.30;99.90;;;;;;5115271;28;20024;-68
2022/02/07 00:54:24;;;;;;;;;;;5.30;99.90;;;;;;5116031;28;20023;-69
2022/02/07 00:56:50;;;;;;;0.60;0.40;;;5.30;99.90;;;;;;5116444;28;19910;-69
2022/02/07 00:59:16;;;;;;;1.15;0.43;;;5.30;99.90;;;;;;5115189;28;20407;-68
2022/02/07 01:01:42;;;;;;;0.23;0.23;;;5.30;99.90;;;;;;5114798;28;20024;-68
2022/02/07 01:04:07;;;;;;;2.67;0.50;;;5.20;99.90;;;;;;5115917;28;20119;-68
2022/02/07 01:06:33;;;;;;;0.70;0.30;;;5.20;99.90;;;;;;5117031;28;20032;-68
2022/02/07 01:09:19;;;;;;;1.10;0.40;;;5.20;99.90;;;;;;5114451;28;20028;-69
2022/02/07 01:14:53;;;;;;;0.55;0.30;;;5.20;99.90;;;;;;5116085;28;20552;-69
2022/02/07 01:48:06;;;;;;;1.10;0.32;;;5.40;99.90;;;;;;5114428;28;20504;-68
2022/02/07 01:55:41;;;;;;;0.93;0.40;;;5.40;99.90;;;;;;5115327;28;20099;-68
2022/02/07 01:58:08;;;;;;;2.60;0.50;;;5.40;99.90;;;;;;5115568;28;20102;-68
2022/02/07 02:00:37;;;;;;;13.25;1.10;;;5.50;99.90;;;;;;5114465;28;20145;-69
2022/02/07 02:03:03;;;;;;;0.68;0.40;;;5.40;99.90;;;;;;5115817;28;20495;-69
2022/02/07 02:05:36;;;;;;;3.78;0.50;;;5.40;99.90;;;;;;5114413;28;20380;-69
2022/02/07 02:08:06;;;;;;;2.65;0.85;;;5.40;99.90;;;;;;5114269;28;20535;-69
2022/02/07 02:10:34;;;;;;;1.50;0.45;;;5.50;99.90;;;;;;5114364;28;20028;-69
2022/02/07 02:13:19;;;;;;;0.57;0.30;;;5.40;99.90;;;;;;5115278;28;20016;-69
2022/02/07 02:15:53;;;;;;;2.85;0.70;;;5.40;99.90;;;;;;5115397;28;20051;-69
2022/02/07 02:37:45;;;;;;;5.60;0.68;;;5.30;99.90;;;;;;5121952;28;20057;-69
2022/02/07 02:45:37;;;;;;;5.28;0.70;;;5.20;99.90;;;;;;5119333;28;20034;-69
2022/02/07 02:48:10;;;;;;;5.30;0.80;;;5.20;99.90;;;;;;5118680;28;20016;-68
2022/02/07 02:50:36;;;;;;;1.42;0.57;;;5.20;99.90;;;;;;5118006;28;20416;-69
2022/02/07 02:53:07;;;;;;;4.53;0.93;;;5.20;99.90;;;;;;5117634;28;20442;-69
2022/02/07 02:55:36;;;;;;;2.38;0.70;;;5.20;99.90;;;;;;5118351;28;20039;-69
2022/02/07 02:58:04;;;;;;;5.03;1.65;;;5.20;99.90;;;;;;5119028;27;20051;-69
2022/02/07 03:00:31;;;;;;;2.70;0.70;;;5.10;99.90;;;;;;5119972;28;20028;-69
2022/02/07 03:02:57;;;;;;;6.53;0.80;;;5.20;99.90;;;;;;5119639;28;20096;-69
2022/02/07 03:05:22;;;;;;;3.13;0.60;;;5.20;99.90;;;;;;5118430;28;20055;-68
2022/02/07 03:07:48;;;;;;;4.10;0.90;;;5.20;99.90;;;;;;5119865;28;20024;-69
2022/02/07 03:10:41;;;;;;;3.67;0.70;;;5.20;99.90;;;;;;5114574;28;20028;-69
2022/02/07 03:18:17;;;;;;;2.53;0.80;;;5.20;99.90;;;;;;5114007;28;20056;-68
2022/02/07 03:20:43;;;;;;;3.67;1.80;;;5.20;99.90;;;;;;5112384;28;20020;-68
2022/02/07 03:23:09;;;;;;;4.57;0.83;;;5.30;99.90;;;;;;5113853;28;20024;-68
2022/02/07 03:25:35;;;;;;;3.43;0.73;;;5.30;99.90;;;;;;5113861;28;20027;-68
2022/02/07 03:28:01;;;;;;;0.85;0.50;;;5.40;99.90;;;;;;5112268;28;20016;-68
2022/02/07 03:30:27;;;;;;;1.55;0.40;;;5.10;99.90;;;;;;5113630;27;20111;-68
2022/02/07 03:32:53;;;;;;;1.45;0.40;;;4.80;99.90;;;;;;5113739;28;20051;-68
2022/02/07 03:35:19;;;;;;;3.07;0.23;;;4.40;99.90;;;;;;5113391;28;20023;-68
2022/02/07 03:37:46;;;;;;;1.27;0.45;;;4.10;99.90;;;;;;5112049;28;20270;-68
2022/02/07 03:40:12;;;;;;;2.10;0.82;;;3.80;99.90;;;;;;5113248;28;20488;-68
2022/02/07 03:42:38;;;;;;;1.20;0.70;;;3.70;99.90;;;;;;5111837;28;20035;-68
2022/02/07 03:45:04;;;;;;;1.97;0.70;;;3.60;99.90;;;;;;5113465;28;20495;-68
2022/02/07 03:47:30;;;;;;;;;;;3.60;99.90;;;;;;5113321;28;20028;-68
2022/02/07 03:49:57;;;;;;;0.90;0.40;;;3.60;99.90;;;;;;5111929;28;20415;-68
2022/02/07 03:52:23;;;;;;;1.40;0.65;;;3.50;99.90;;;;;;5113699;28;20492;-69
2022/02/07 03:54:49;;;;;;;0.57;0.50;;;3.50;99.90;;;;;;5113572;28;20056;-70
2022/02/07 03:57:15;;;;;;;3.88;0.50;;;3.60;99.90;;;;;;5111961;28;20492;-69
2022/02/07 03:59:41;;;;;;;2.40;0.55;;;3.60;99.90;;;;;;5113440;28;20028;-69
2022/02/07 04:02:06;;;;;;;1.33;0.47;;;3.60;99.90;;;;;;5112082;28;20388;-69
2022/02/07 04:04:32;;;;;;;2.77;0.50;;;3.60;99.90;;;;;;5113277;28;20047;-69
2022/02/07 04:06:58;;;;;;;1.40;0.45;;;3.60;99.90;;;;;;5114094;28;20460;-69
2022/02/07 04:09:30;;;;;;;1.00;0.50;;;3.70;99.90;;;;;;5113859;28;20024;-70
2022/02/07 04:12:06;;;;;;;3.38;0.55;;;3.70;99.90;;;;;;5115641;28;20111;-69
2022/02/07 04:14:31;;;;;;;0.77;0.38;;;3.70;99.90;;;;;;5117030;28;20015;-69
2022/02/07 04:16:57;;;;;;;3.13;0.77;;;3.70;99.90;;;;;;5115715;28;20548;-69
2022/02/07 04:19:30;;;;;;;2.00;0.57;;;3.70;99.90;;;;;;5115462;28;20016;-69
2022/02/07 04:21:56;;;;;;;1.27;0.68;;;3.60;99.90;;;;;;5116938;28;20018;-69
2022/02/07 04:24:21;;;;;;;3.27;1.07;;;3.60;99.90;;;;;;5117490;28;20391;-69
2022/02/07 04:26:47;;;;;;;0.57;0.40;;;3.60;99.90;;;;;;5117581;28;20028;-69
2022/02/07 04:29:13;;;;;;;1.07;0.60;;;3.50;99.90;;;;;;5117056;28;20107;-69
2022/02/07 04:31:38;;;;;;;1.63;0.63;;;3.40;99.90;;;;;;5115331;28;20031;-68
2022/02/07 04:34:04;;;;;;;2.07;0.83;;;3.40;99.90;;;;;;5115045;28;20499;-69
2022/02/07 04:36:30;;;;;;;1.70;0.60;;;3.30;99.90;;;;;;5115336;28;20039;-69
2022/02/07 04:38:56;;;;;;;1.90;0.90;;;3.30;99.90;;;;;;5115464;28;20410;-69
2022/02/07 04:41:23;;;;;;;1.97;0.70;;;3.30;99.90;;;;;;5124715;28;20055;-69
2022/02/07 04:44:00;;;;;;;2.58;0.68;;;3.20;99.90;;;;;;5126774;28;20368;-68
2022/02/07 04:59:21;;;;;;;4.53;0.60;;;3.20;99.90;;;;;;5116874;28;20503;-68
2022/02/07 05:01:51;;;;;;;2.58;0.70;;;3.20;99.90;;;;;;5117908;28;20111;-68
2022/02/07 05:04:40;;;;;;;2.65;0.93;;;3.20;99.90;;;;;;5116193;28;20027;-69
2022/02/07 05:15:18;;;;;;;2.35;1.10;;;3.20;99.90;;;;;;5116429;28;20100;-69
2022/02/07 05:17:43;;;;;;;4.60;0.77;;;3.20;99.90;;;;;;5116263;28;20468;-69
2022/02/07 05:20:09;;;;;;;6.53;1.05;;;3.20;99.90;;;;;;5114527;28;20024;-72
2022/02/07 05:22:36;;;;;;;3.97;1.00;;;3.10;99.90;;;;;;5116183;27;20032;-70
2022/02/07 05:25:03;;;;;;;3.38;0.90;;;3.10;99.90;;;;;;5117952;28;20035;-66
2022/02/07 05:27:29;;;;;;;5.53;0.95;;;3.20;99.90;;;;;;5125444;28;20083;-67
2022/02/07 05:29:55;;;;;;;7.93;1.17;;;3.20;99.90;;;;;;5123036;28;20024;-66
2022/02/07 05:32:21;;;;;;;6.20;0.90;;;3.20;99.90;;;;;;5116851;28;20079;-67
2022/02/07 05:34:47;;;;;;;6.70;1.03;;;3.10;99.90;;;;;;5117716;27;20047;-67
2022/02/07 05:37:14;;;;;;;2.47;1.00;;;3.10;99.90;;;;;;5116977;28;20096;-67
2022/02/07 05:39:43;;;;;;;3.97;0.90;;;3.10;99.90;;;;;;5114083;28;20024;-66
2022/02/07 05:42:09;;;;;;;4.97;1.25;;;3.20;99.90;;;;;;5115357;28;20050;-66
2022/02/07 05:44:37;;;;;;;2.17;0.97;;;3.20;99.90;;;;;;5116127;28;20024;-66
2022/02/07 05:47:04;;;;;;;2.53;0.73;;;3.30;99.90;;;;;;5114612;28;20016;-65
2022/02/07 05:49:29;;;;;;;6.85;2.33;;;3.30;99.90;;;;;;5115749;27;20019;-66
2022/02/07 05:51:55;;;;;;;6.57;1.00;;;3.20;99.90;;;;;;5113661;28;20039;-66
2022/02/07 05:54:21;;;;;;;6.57;1.40;;;3.20;99.90;;;;;;5113807;28;20236;-65
2022/02/07 05:56:47;;;;;;;4.57;1.15;;;3.20;99.90;;;;;;5114067;28;20396;-64
2022/02/07 05:59:13;;;;;;;5.80;0.90;;;3.20;99.90;;;;;;5114678;28;20036;-64
2022/02/07 06:01:39;;;;;;;3.00;1.13;;;3.10;99.90;;;;;;5114858;28;20023;-65
2022/02/07 06:04:05;;;;;;;2.30;0.82;;;3.10;99.90;;;;;;5114702;28;20032;-64
2022/02/07 06:06:31;;;;;;;4.50;1.73;;;3.10;99.90;;;;;;5114722;28;20030;-66
2022/02/07 06:08:56;;;;;;;3.53;0.90;;;3.00;99.90;;;;;;5114677;28;20070;-65
2022/02/07 06:11:22;;;;;;;5.43;1.20;;;3.00;99.90;;;;;;5113327;28;20046;-65
2022/02/07 06:13:48;;;;;;;6.05;1.20;;;3.00;99.90;;;;;;5114665;28;20054;-61
2022/02/07 06:16:17;;;;;;;3.00;1.10;;;3.00;99.90;;;;;;5113014;28;20032;-65
2022/02/07 06:18:43;;;;;;;5.93;1.40;;;3.00;99.90;;;;;;5114551;28;20469;-64
2022/02/07 06:21:12;;;;;;;;;;;3.00;99.90;;;;;;5113660;28;20032;-65
2022/02/07 06:23:38;;;;;;;4.07;1.70;;;3.00;99.90;;;;;;5114242;28;20280;-66
2022/02/07 06:26:04;;;;;;;8.43;1.77;;;3.00;99.90;;;;;;5114202;28;20064;-65
2022/02/07 06:28:29;;;;;;;10.40;3.43;;;2.90;99.90;;;;;;5114538;28;20257;-66
2022/02/07 06:30:55;;;;;;;7.40;2.00;;;2.90;99.90;;;;;;5114306;27;20024;-64
2022/02/07 06:33:21;;;;;;;6.83;2.20;;;2.90;99.90;;;;;;5113353;28;20633;-66
2022/02/07 06:35:46;;;;;;;8.70;3.07;;;2.90;99.90;;;;;;5112323;28;20035;-66
2022/02/07 06:38:15;;;;;;;7.37;1.83;;;2.90;99.90;;;;;;5114857;28;20038;-65
2022/02/07 06:40:40;;;;;;;8.15;2.67;;;2.80;99.90;;;;;;5113994;28;20516;-64
2022/02/07 06:43:06;;;;;;;4.28;1.20;;;2.80;99.90;;;;;;5114092;28;20107;-66
2022/02/07 06:45:32;;;;;;;5.27;1.17;;;2.80;99.90;;;;;;5114223;28;20410;-66
2022/02/07 06:47:58;;;;;;;7.72;1.77;;;2.80;99.90;;;;;;5113876;28;20043;-66
2022/02/07 06:50:23;;;;;;;7.10;1.43;;;2.80;99.90;;;;;;5113996;28;20538;-66
2022/02/07 06:52:49;;;;;;;5.03;1.73;;;2.80;99.90;;;;;;5112196;28;20097;-66
2022/02/07 06:55:15;;;;;;;5.37;1.10;;;2.70;99.90;;;;;;5113999;28;20257;-65
2022/02/07 06:57:40;;;;;;;6.87;1.43;;;2.80;99.90;;;;;;5113859;28;20026;-65
2022/02/07 07:00:09;;;;;;;4.33;2.17;;;2.80;99.90;;;;;;5115335;28;20110;-64
2022/02/07 07:02:35;;;;;;;9.43;3.22;;;2.80;99.90;;;;;;5112686;28;20035;-66
2022/02/07 07:05:08;;;;;;;7.93;1.60;;;2.80;99.90;;;;;;5113764;28;20095;-66
2022/02/07 07:07:33;;;;;;;7.78;2.00;;;2.80;99.90;;;;;;5112433;28;20031;-66
2022/02/07 07:09:59;;;;;;;5.43;2.80;;;2.90;99.90;;;;;;5114001;28;20028;-66
2022/02/07 07:12:26;;;;;;;3.63;1.48;;;2.90;99.90;;;;;;5113718;28;20039;-64
2022/02/07 07:15:07;;;;;;;9.93;1.77;;;3.00;99.90;;;;;;5113938;28;20107;-65
2022/02/07 07:17:34;;;;;;;6.13;1.30;;;3.00;99.90;;;;;;5112719;28;20020;-65
2022/02/07 07:20:02;;;;;;;7.07;1.10;;;3.10;99.90;;;;;;5115932;28;20091;-65
2022/02/07 07:22:30;;;;;;;6.28;1.83;;;3.10;99.90;;;;;;5113038;28;20027;-66
2022/02/07 07:24:56;;;;;;;5.22;1.10;;;3.20;99.90;;;;;;5114054;28;20020;-65
2022/02/07 07:27:25;;;;;;;9.67;3.30;;;3.30;99.90;;;;;;5114121;28;20030;-65
2022/02/07 07:29:51;;;;;;;4.75;1.10;;;3.30;99.90;;;;;;5114142;28;20069;-66
2022/02/07 07:32:23;;;;;;;4.50;1.10;;;3.30;99.90;;;;;;5113806;28;20024;-65
2022/02/07 07:34:49;;;;;;;3.90;1.08;;;3.40;99.90;;;;;;5114087;28;20482;-65
2022/02/07 07:37:14;;;;;;;10.10;1.10;;;3.50;99.90;;;;;;5113527;28;20020;-66
2022/02/07 07:39:42;;;;;;;3.83;0.87;;;3.50;99.90;;;;;;5113391;28;20491;-65
2022/02/07 07:42:08;;;;;;;7.38;1.02;;;3.50;99.90;;;;;;5113069;28;20037;-66
2022/02/07 07:44:36;;;;;;;3.90;1.00;;;3.40;99.90;;;;;;5111918;28;20511;-65
2022/02/07 07:47:09;;;;;;;9.20;1.20;;;3.50;99.90;;;;;;5117297;28;20052;-65
2022/02/07 07:49:51;;;;;;;5.95;1.23;;;3.50;99.90;;;;;;5117559;28;20457;-66
2022/02/07 07:52:29;;;;;;;4.80;1.48;;;3.60;99.90;;;;;;5117228;28;20019;-66
2022/02/07 07:55:21;;;;;;;6.65;1.05;;;3.70;99.90;;;;;;5115692;28;20024;-65
2022/02/07 08:03:08;;;;;;;10.30;1.70;;;3.80;99.90;;;;;;5116503;28;20043;-65
2022/02/07 08:05:53;;;;;;;11.45;2.13;;;3.80;99.90;;;;;;5117586;28;20381;-65
2022/02/07 08:08:30;;;;;;;7.38;1.38;;;3.90;99.90;;;;;;5118835;28;20020;-65
2022/02/07 08:13:28;;;;;;;6.05;1.80;;;3.90;99.90;;;;;;5116717;28;20020;-65
2022/02/07 08:15:54;;;;;;;7.97;1.25;;;4.00;99.90;;;;;;5116335;28;20042;-66
2022/02/07 08:18:19;;;;;;;8.23;1.60;;;4.10;99.90;;;;;;5116553;28;20020;-66
2022/02/07 08:20:45;;;;;;;7.83;1.60;;;4.10;99.90;;;;;;5116676;27;20037;-66
2022/02/07 08:23:11;;;;;;;8.70;1.70;;;4.20;99.90;;;;;;5116333;28;20024;-66
2022/02/07 08:25:37;;;;;;;5.43;1.50;;;4.30;99.90;;;;;;5116307;28;20047;-66
2022/02/07 08:28:03;;;;;;;5.63;1.55;;;4.40;99.90;;;;;;5116295;28;20757;-65
2022/02/07 08:30:29;;;;;;;6.60;1.60;;;4.50;99.90;;;;;;5114901;28;20042;-65
2022/02/07 08:32:57;;;;;;;3.65;1.30;;;4.50;99.90;;;;;;5116526;28;20031;-66
2022/02/07 08:35:23;;;;;;;7.20;2.75;;;4.50;99.90;;;;;;5115075;28;20032;-67
2022/02/07 08:37:49;;;;;;;10.80;2.47;;;4.50;99.90;;;;;;5117576;28;20038;-66
2022/02/07 08:40:15;;;;;;;8.68;1.80;;;4.50;99.90;;;;;;5116704;28;20087;-65
2022/02/07 08:42:41;;;;;;;11.43;1.80;;;4.50;99.90;;;;;;5116368;27;20098;-65
2022/02/07 08:45:07;;;;;;;4.75;1.60;;;4.50;99.90;;;;;;5116168;28;20187;-65
2022/02/07 08:47:33;;;;;;;6.40;1.50;;;4.50;99.90;;;;;;5115842;28;20103;-65
2022/02/07 08:50:03;;;;;;;4.50;1.57;;;4.50;99.90;;;;;;5116127;28;20108;-65
2022/02/07 08:52:28;;;;;;;12.13;1.88;;;4.50;99.90;;;;;;5115789;28;20030;-65
2022/02/07 08:54:56;;;;;;;12.20;1.73;;;4.60;99.90;;;;;;5116416;28;20094;-65
2022/02/07 08:57:31;;;;;;;8.60;2.13;;;4.60;99.90;;;;;;5115718;28;20421;-66
2022/02/07 09:00:38;;;;;;;8.70;2.03;;;4.60;99.90;;;;;;5116044;28;20031;-65
2022/02/07 09:05:39;;;;;;;10.03;1.53;;;4.70;99.90;;;;;;5115909;28;20024;-66
2022/02/07 09:10:47;;;;;;;7.80;2.17;;;4.80;99.90;;;;;;5116358;28;20019;-67
2022/02/07 09:13:17;;;;;;;8.23;2.35;;;4.90;99.90;;;;;;5115665;28;20472;-66
2022/02/07 09:15:55;;;;;;;9.13;1.90;;;4.90;99.90;;;;;;5115693;28;20020;-65
2022/02/07 09:18:21;;;;;;;6.95;1.75;;;5.00;99.90;;;;;;5115801;28;20023;-66
2022/02/07 09:20:47;;;;;;;10.70;1.90;;;5.10;99.90;;;;;;5115533;28;20019;-66
2022/02/07 09:23:13;;;;;;;9.23;1.95;;;5.20;99.90;;;;;;5114380;28;20023;-66
2022/02/07 09:25:39;;;;;;;9.52;1.75;;;5.20;99.90;;;;;;5114463;28;20093;-65
2022/02/07 09:28:05;;;;;;;13.57;1.90;;;5.20;99.90;;;;;;5115494;28;20023;-65
2022/02/07 09:30:32;;;;;;;7.43;1.65;;;5.20;99.90;;;;;;5114499;28;20023;-67
2022/02/07 09:32:57;;;;;;;12.75;1.70;;;5.20;99.90;;;;;;5115321;28;20039;-65
2022/02/07 09:35:23;;;;;;;8.23;2.40;;;5.20;99.90;;;;;;5114125;28;20023;-66
2022/02/07 09:37:49;;;;;;;7.77;1.53;;;5.20;99.90;;;;;;5115220;28;20438;-66
2022/02/07 09:40:15;;;;;;;7.70;1.67;;;5.30;99.90;;;;;;5115415;28;20261;-66
2022/02/07 09:42:46;;;;;;;11.32;1.60;;;5.30;99.90;;;;;;5115171;28;20055;-65
2022/02/07 09:45:18;;;;;;;5.13;1.48;;;5.40;99.90;;;;;;5115325;27;20114;-66
2022/02/07 09:47:44;;;;;;;4.32;1.55;;;5.70;99.90;;;;;;5115011;28;20031;-66
2022/02/07 09:50:10;;;;;;;7.75;1.80;;;6.50;99.90;;;;;;5114946;28;20069;-66
2022/02/07 09:52:36;;;;;;;6.23;1.50;;;6.90;99.90;;;;;;5114378;28;20027;-67
2022/02/07 09:55:04;;;;;;;10.80;3.92;;;7.10;99.90;;;;;;5112822;28;20506;-65
2022/02/07 09:57:30;;;;;;;11.85;5.32;;;7.00;99.90;;;;;;5115063;28;20020;-66
2022/02/07 09:59:56;;;;;;;9.88;2.67;;;6.80;99.90;;;;;;5113580;28;20031;-67
2022/02/07 10:02:31;;;;;;;17.45;2.00;;;6.80;99.90;;;;;;5113486;28;20496;-66
2022/02/07 10:05:02;;;;;;;9.20;2.60;;;6.80;99.90;;;;;;5114053;28;20031;-65
2022/02/07 10:15:34;;;;;;;7.78;1.50;;;7.10;99.90;;;;;;5114370;28;20059;-66
2022/02/07 10:18:08;;;;;;;7.90;1.95;;;7.90;99.90;;;;;;5114194;28;20441;-66
2022/02/07 10:21:23;;;;;;;7.38;1.70;;;9.20;99.90;;;;;;5114398;28;20043;-65
2022/02/07 10:40:31;;;;;;;11.30;3.38;;;13.40;91.40;;;;;;5113995;28;20038;-66
2022/02/07 10:43:31;;;;;;;12.52;4.07;;;12.30;93.40;;;;;;5113776;28;20024;-66
2022/02/07 10:48:41;;;;;;;9.80;1.98;;;9.80;98.80;;;;;;5113807;28;20023;-66
2022/02/07 10:51:22;;;;;;;7.60;1.60;;;8.80;99.90;;;;;;5113589;28;20016;-66
2022/02/07 10:54:06;;;;;;;10.10;1.85;;;8.20;99.90;;;;;;5113483;28;20157;-66
2022/02/07 10:56:38;;;;;;;7.80;2.00;;;7.60;99.90;;;;;;5112683;28;20024;-65
2022/02/07 10:59:07;;;;;;;8.85;2.35;;;7.40;99.90;;;;;;5113794;28;20020;-66
2022/02/07 11:04:17;;;;;;;7.72;1.60;;;7.20;99.90;;;;;;5114721;28;20480;-66
2022/02/07 11:06:50;;;;;;;11.55;3.63;;;7.10;99.90;;;;;;5115528;28;20019;-65
2022/02/07 11:11:57;;;;;;;8.77;1.75;;;6.90;99.90;;;;;;5114285;28;20038;-64
2022/02/07 11:14:40;;;;;;;8.52;1.55;;;6.90;99.90;;;;;;5112642;28;20074;-65
2022/02/07 11:20:09;;;;;;;10.77;1.45;;;6.80;99.90;;;;;;5116339;28;20063;-66
2022/02/07 11:22:56;;;;;;;8.60;1.83;;;6.70;99.90;;;;;;5118134;28;20055;-63
2022/02/07 11:27:56;;;;;;;7.78;1.73;;;6.50;99.90;;;;;;5117637;28;20016;-66
2022/02/07 11:30:42;;;;;;;8.13;2.28;;;6.50;99.90;;;;;;5116298;28;20102;-64
2022/02/07 11:33:50;;;;;;;10.10;1.80;;;6.40;99.90;;;;;;5117145;28;20085;-64
2022/02/07 11:36:28;;;;;;;9.70;1.80;;;6.40;99.90;;;;;;5116221;28;20409;-64
2022/02/07 11:38:59;;;;;;;8.52;1.55;;;6.40;99.90;;;;;;5117331;28;20344;-65
2022/02/07 11:41:25;;;;;;;10.80;2.95;;;6.50;99.90;;;;;;5117740;28;20023;-65
2022/02/07 11:43:50;;;;;;;12.47;2.20;;;6.50;99.90;;;;;;5117805;28;20035;-64
2022/02/07 11:46:17;;;;;;;13.33;1.73;;;6.50;99.90;;;;;;5118043;28;20024;-65
2022/02/07 11:48:55;;;;;;;7.47;2.10;;;6.50;99.90;;;;;;5117657;28;20047;-64
2022/02/07 11:51:31;;;;;;;9.15;1.67;;;6.50;99.90;;;;;;5117663;28;20020;-65
2022/02/07 11:54:02;;;;;;;10.20;1.92;;;6.50;99.90;;;;;;5118193;28;20031;-65
2022/02/07 11:56:41;;;;;;;7.63;1.90;;;6.60;99.90;;;;;;5117110;28;20028;-65
2022/02/07 11:59:15;;;;;;;10.45;1.65;;;6.60;99.90;;;;;;5116689;28;20427;-65
2022/02/07 12:01:58;;;;;;;9.55;2.22;;;6.60;99.90;;;;;;5115449;28;20035;-64
2022/02/07 12:04:25;;;;;;;9.95;2.97;;;6.50;99.90;;;;;;5116559;28;20048;-64
2022/02/07 12:07:21;;;;;;;12.75;2.70;;;6.50;99.90;;;;;;5116962;28;20026;-65
2022/02/07 12:10:06;;;;;;;11.30;1.83;;;6.50;99.90;;;;;;5117113;28;20368;-66
2022/02/07 12:12:41;;;;;;;7.18;1.50;;;6.50;99.90;;;;;;5116759;28;20444;-64
2022/02/07 12:15:22;;;;;;;11.38;3.47;;;6.50;99.90;;;;;;5115342;28;20107;-65
2022/02/07 12:17:50;;;;;;;7.50;1.67;;;6.50;99.90;;;;;;5117257;28;20011;-64
2022/02/07 12:20:33;;;;;;;5.93;1.95;;;6.50;99.90;;;;;;5115559;28;20026;-65
2022/02/07 12:23:10;;;;;;;10.18;2.65;;;6.50;99.90;;;;;;5116701;28;20024;-66
2022/02/07 12:25:44;;;;;;;8.40;2.25;;;6.50;99.90;;;;;;5115287;28;20011;-65
2022/02/07 12:28:19;;;;;;;6.22;2.83;;;6.50;99.90;;;;;;5116764;28;20020;-65
2022/02/07 12:31:07;;;;;;;10.43;2.85;;;6.50;99.90;;;;;;5115942;28;20024;-64
2022/02/07 12:33:33;;;;;;;8.52;1.70;;;6.50;99.90;;;;;;5116280;28;20015;-65
2022/02/07 12:36:00;;;;;;;5.83;1.50;;;6.50;99.90;;;;;;5114922;28;20027;-65
2022/02/07 12:38:28;;;;;;;8.88;1.60;;;6.50;99.90;;;;;;5115315;28;20484;-64
2022/02/07 12:40:54;;;;;;;5.53;1.42;;;6.50;99.90;;;;;;5116574;28;20027;-65
2022/02/07 12:43:21;;;;;;;13.88;3.22;;;6.60;99.90;;;;;;5116469;27;20361;-64
2022/02/07 12:45:47;;;;;;;10.48;1.90;;;6.60;99.90;;;;;;5116151;28;20019;-66
2022/02/07 12:48:16;;;;;;;7.78;2.03;;;6.60;99.90;;;;;;5116389;28;20022;-65
2022/02/07 12:50:47;;;;;;;7.68;2.17;;;6.50;99.90;;;;;;5116099;28;20015;-65
2022/02/07 12:53:24;;;;;;;10.23;2.17;;;6.60;99.90;;;;;;5115955;28;20066;-65
2022/02/07 12:55:55;;;;;;;11.80;2.47;;;6.60;99.90;;;;;;5116342;28;20047;-65
2022/02/07 12:58:32;;;;;;;10.68;2.85;;;6.60;99.90;;;;;;5115877;28;20046;-65
2022/02/07 13:00:58;;;;;;;9.65;1.65;;;6.50;99.90;;;;;;5121122;28;20027;-66
2022/02/07 13:03:24;;;;;;;8.20;2.33;;;6.60;99.90;;;;;;5118942;28;20116;-66
2022/02/07 13:05:50;;;;;;;7.73;2.53;;;6.60;99.90;;;;;;5117556;28;20098;-63
2022/02/07 13:08:17;;;;;;;10.23;2.20;;;6.50;99.90;;;;;;5115930;28;20418;-65
2022/02/07 13:10:54;;;;;;;6.97;1.77;;;6.60;99.90;;;;;;5115510;28;20024;-65
2022/02/07 13:15:47;;;;;;;16.17;2.20;;;6.60;99.90;;;;;;5115720;28;20482;-65
2022/02/07 13:18:16;;;;;;;;;;;6.50;99.90;;;;;;5120111;28;20023;-65
2022/02/07 13:20:43;;;;;;;8.75;1.63;;;6.50;99.90;;;;;;5117359;28;19994;-64
2022/02/07 13:23:15;;;;;;;10.98;1.70;;;6.60;99.90;;;;;;5115005;28;20015;-64
2022/02/07 13:25:54;;;;;;;6.88;1.70;;;6.60;99.90;;;;;;5115571;28;20444;-65
2022/02/07 13:28:28;;;;;;;4.55;1.63;;;6.60;99.90;;;;;;5113947;28;20046;-63
2022/02/07 13:30:57;;;;;;;12.57;1.83;;;6.60;99.90;;;;;;5114871;28;20065;-65
2022/02/07 13:33:24;;;;;;;7.18;1.50;;;6.70;99.90;;;;;;5116599;28;20028;-65
2022/02/07 13:35:54;;;;;;;9.23;2.00;;;6.70;99.90;;;;;;5116357;28;20515;-65
2022/02/07 13:38:21;;;;;;;9.75;1.95;;;6.70;99.90;;;;;;5116382;28;20111;-64
2022/02/07 13:40:48;;;;;;;;;;;6.70;99.90;;;;;;5115042;28;20023;-65
2022/02/07 13:43:20;;;;;;;10.30;1.63;;;6.70;99.90;;;;;;5114267;28;20291;-64
2022/02/07 13:45:54;;;;;;;29.83;13.10;;;6.70;99.90;;;;;;5115391;28;20076;-65
2022/02/07 13:48:21;;;;;;;9.30;2.30;;;6.70;99.90;;;;;;5113721;28;20023;-63
2022/02/07 13:50:51;;;;;;;6.70;1.90;;;6.80;99.90;;;;;;5113552;28;20031;-64
2022/02/07 13:53:18;;;;;;;10.65;2.10;;;6.80;99.90;;;;;;5115003;28;20028;-65
2022/02/07 13:55:47;;;;;;;14.35;2.92;;;6.80;99.90;;;;;;5114783;28;20104;-63
2022/02/07 13:58:18;;;;;;;11.50;1.85;;;6.90;99.90;;;;;;5114953;28;20020;-64
2022/02/07 14:00:50;;;;;;;10.90;1.95;;;6.90;99.90;;;;;;5115178;28;20024;-65
2022/02/07 14:03:41;;;;;;;8.90;2.38;;;6.90;99.90;;;;;;5114513;28;20059;-64
2022/02/07 14:06:09;;;;;;;13.27;1.98;;;6.90;99.90;;;;;;5114834;27;20047;-63
2022/02/07 14:08:35;;;;;;;6.97;1.60;;;6.90;99.90;;;;;;5114626;28;20019;-64
2022/02/07 14:11:01;;;;;;;10.47;2.37;;;7.10;99.90;;;;;;5113103;28;20023;-64
2022/02/07 14:13:27;;;;;;;13.45;2.40;;;7.20;99.90;;;;;;5113518;28;20076;-65
2022/02/07 14:15:53;;;;;;;8.82;1.50;;;7.20;99.90;;;;;;5114349;28;20422;-64
2022/02/07 14:18:21;;;;;;;9.17;1.60;;;7.30;99.90;;;;;;5113112;28;20058;-64
2022/02/07 14:20:47;;;;;;;14.15;2.00;;;7.20;99.90;;;;;;5114678;28;20261;-65
2022/02/07 14:23:18;;;;;;;9.90;1.65;;;7.20;99.90;;;;;;5115201;28;20336;-72
2022/02/07 14:25:52;;;;;;;9.10;3.20;;;7.20;99.90;;;;;;5115053;28;20024;-72
2022/02/07 14:28:18;;;;;;;11.20;2.50;;;7.20;99.90;;;;;;5116289;28;20022;-71
2022/02/07 14:30:44;;;;;;;9.75;2.45;;;7.20;99.90;;;;;;5114709;28;20103;-66
2022/02/07 14:33:11;;;;;;;7.05;2.75;;;7.20;99.90;;;;;;5114335;28;20032;-65
2022/02/07 14:35:36;;;;;;;10.48;1.60;;;7.10;99.90;;;;;;5114166;28;20384;-66
2022/02/07 14:38:05;;;;;;;7.23;1.50;;;7.10;99.90;;;;;;5114165;28;20027;-66
2022/02/07 14:40:32;;;;;;;8.15;1.73;;;7.10;99.90;;;;;;5112467;28;20028;-66
2022/02/07 14:43:00;;;;;;;10.73;1.92;;;7.10;99.90;;;;;;5115016;28;20102;-65
2022/02/07 14:45:31;;;;;;;6.20;1.40;;;7.00;99.90;;;;;;5113893;28;20384;-65
2022/02/07 14:48:01;;;;;;;9.85;2.15;;;7.00;99.90;;;;;;5112402;28;20534;-67
2022/02/07 14:50:28;;;;;;;11.90;1.58;;;7.00;99.90;;;;;;5113925;28;20020;-66
2022/02/07 14:52:55;;;;;;;7.22;1.80;;;6.90;99.90;;;;;;5112113;28;20062;-66
2022/02/07 14:55:22;;;;;;;6.95;1.50;;;7.00;99.90;;;;;;5111700;28;20110;-66
2022/02/07 14:58:00;;;;;;;9.10;1.75;;;6.90;99.90;;;;;;5113672;28;20068;-66
2022/02/07 15:00:27;;;;;;;6.28;1.60;;;6.90;99.90;;;;;;5112257;28;20028;-66
2022/02/07 15:02:54;;;;;;;10.15;2.17;;;6.90;99.90;;;;;;5111672;28;20057;-66
2022/02/07 15:05:22;;;;;;;11.07;2.13;;;6.90;99.90;;;;;;5111936;28;20286;-66
2022/02/07 15:07:48;;;;;;;12.10;2.20;;;6.90;99.90;;;;;;5114119;28;20023;-66
2022/02/07 15:10:14;;;;;;;10.03;2.63;;;6.90;99.90;;;;;;5112406;28;20038;-67
2022/02/07 15:12:40;;;;;;;10.88;2.33;;;6.90;99.90;;;;;;5113738;28;20089;-66
2022/02/07 15:15:06;;;;;;;4.07;1.50;;;6.90;99.90;;;;;;5113723;28;20059;-69
2022/02/07 15:17:32;;;;;;;16.67;6.07;;;6.90;99.90;;;;;;5113905;28;20023;-65
2022/02/07 15:19:58;;;;;;;8.75;2.22;;;6.90;99.90;;;;;;5113569;28;20384;-68
2022/02/07 15:22:25;;;;;;;12.38;3.10;;;6.90;99.90;;;;;;5114716;28;20468;-70
2022/02/07 15:24:51;;;;;;;;;;;6.90;99.90;;;;;;5125936;28;20092;-69
2022/02/07 15:27:18;;;;;;;11.15;2.80;;;7.00;99.90;;;;;;5113872;28;19904;-68
2022/02/07 15:29:44;;;;;;;12.02;1.50;;;6.90;99.90;;;;;;5113591;28;20028;-67